sensor_id;sensor_type;location;lat;lon;timestamp;P1;durP1;ratioP1;P2;durP2;ratioP2
40515;SDS011;26216;53.724;9.898;2024-03-23T00:53:18;9.95;;;2.45;;
40515;SDS011;26216;53.724;9.898;2024-03-23T00:55:44;6.43;;;1.83;;
40515;SDS011;26216;53.724;9.898;2024-03-23T00:58:10;7.22;;;1.65;;
40515;SDS011;26216;53.724;9.898;2024-03-23T01:00:35;8.32;;;1.95;;
40515;SDS011;26216;53.724;9.898;2024-03-23T01:03:01;6.63;;;1.80;;
40515;SDS011;26216;53.724;9.898;2024-03-23T01:05:27;4.70;;;1.50;;
40515;SDS011;26216;53.724;9.898;2024-03-23T01:07:53;6.43;;;1.77;;
40515;SDS011;26216;53.724;9.898;2024-03-23T01:10:18;5.97;;;1.63;;
40515;SDS011;26216;53.724;9.898;2024-03-23T01:12:44;6.10;;;1.45;;
40515;SDS011;26216;53.724;9.898;2024-03-23T01:15:11;5.15;;;1.60;;
40515;SDS011;26216;53.724;9.898;2024-03-23T01:17:37;5.93;;;1.20;;
40515;SDS011;26216;53.724;9.898;2024-03-23T01:20:02;7.78;;;1.63;;
40515;SDS011;26216;53.724;9.898;2024-03-23T01:22:29;5.10;;;1.67;;
40515;SDS011;26216;53.724;9.898;2024-03-23T01:24:55;8.55;;;1.58;;
40515;SDS011;26216;53.724;9.898;2024-03-23T01:27:21;6.00;;;1.77;;
40515;SDS011;26216;53.724;9.898;2024-03-23T01:29:46;5.25;;;1.90;;
40515;SDS011;26216;53.724;9.898;2024-03-23T01:32:12;7.93;;;1.80;;
40515;SDS011;26216;53.724;9.898;2024-03-23T01:34:38;7.95;;;1.70;;
40515;SDS011;26216;53.724;9.898;2024-03-23T01:37:04;3.78;;;1.27;;
40515;SDS011;26216;53.724;9.898;2024-03-23T01:39:29;8.65;;;1.90;;
40515;SDS011;26216;53.724;9.898;2024-03-23T01:42:57;6.15;;;1.98;;
40515;SDS011;26216;53.724;9.898;2024-03-23T01:45:30;6.50;;;2.05;;
40515;SDS011;26216;53.724;9.898;2024-03-23T01:47:56;6.85;;;1.63;;
40515;SDS011;26216;53.724;9.898;2024-03-23T01:50:23;5.93;;;1.73;;
40515;SDS011;26216;53.724;9.898;2024-03-23T01:52:49;6.82;;;1.27;;
40515;SDS011;26216;53.724;9.898;2024-03-23T01:55:16;7.28;;;1.88;;
40515;SDS011;26216;53.724;9.898;2024-03-23T01:57:42;7.65;;;1.65;;
40515;SDS011;26216;53.724;9.898;2024-03-23T02:00:09;8.00;;;1.75;;
40515;SDS011;26216;53.724;9.898;2024-03-23T02:02:43;6.30;;;1.80;;
40515;SDS011;26216;53.724;9.898;2024-03-23T02:05:11;4.75;;;1.48;;
40515;SDS011;26216;53.724;9.898;2024-03-23T02:07:38;6.15;;;1.77;;
40515;SDS011;26216;53.724;9.898;2024-03-23T02:10:05;6.93;;;1.70;;
40515;SDS011;26216;53.724;9.898;2024-03-23T02:12:32;6.10;;;1.92;;
40515;SDS011;26216;53.724;9.898;2024-03-23T02:14:58;5.32;;;1.23;;
40515;SDS011;26216;53.724;9.898;2024-03-23T02:17:24;3.70;;;1.13;;
40515;SDS011;26216;53.724;9.898;2024-03-23T02:19:50;5.00;;;1.60;;
40515;SDS011;26216;53.724;9.898;2024-03-23T02:22:16;5.45;;;1.48;;
40515;SDS011;26216;53.724;9.898;2024-03-23T02:24:42;5.90;;;1.27;;
40515;SDS011;26216;53.724;9.898;2024-03-23T02:27:08;4.68;;;1.48;;
40515;SDS011;26216;53.724;9.898;2024-03-23T02:29:34;7.75;;;1.58;;
40515;SDS011;26216;53.724;9.898;2024-03-23T02:32:00;9.57;;;1.67;;
40515;SDS011;26216;53.724;9.898;2024-03-23T02:34:26;7.20;;;1.92;;
40515;SDS011;26216;53.724;9.898;2024-03-23T02:36:52;6.65;;;1.60;;
40515;SDS011;26216;53.724;9.898;2024-03-23T02:39:18;7.93;;;2.00;;
40515;SDS011;26216;53.724;9.898;2024-03-23T02:41:43;6.72;;;1.50;;
40515;SDS011;26216;53.724;9.898;2024-03-23T02:44:09;10.80;;;2.53;;
40515;SDS011;26216;53.724;9.898;2024-03-23T02:46:37;5.70;;;1.60;;
40515;SDS011;26216;53.724;9.898;2024-03-23T02:49:03;5.18;;;2.08;;
40515;SDS011;26216;53.724;9.898;2024-03-23T02:51:30;6.13;;;1.70;;
40515;SDS011;26216;53.724;9.898;2024-03-23T02:53:56;5.72;;;1.63;;
40515;SDS011;26216;53.724;9.898;2024-03-23T02:56:22;4.78;;;1.50;;
40515;SDS011;26216;53.724;9.898;2024-03-23T02:58:48;4.47;;;1.23;;
40515;SDS011;26216;53.724;9.898;2024-03-23T03:01:14;8.02;;;1.90;;
40515;SDS011;26216;53.724;9.898;2024-03-23T03:03:40;5.03;;;1.60;;
40515;SDS011;26216;53.724;9.898;2024-03-23T03:06:06;7.72;;;1.50;;
40515;SDS011;26216;53.724;9.898;2024-03-23T03:08:31;5.35;;;1.38;;
40515;SDS011;26216;53.724;9.898;2024-03-23T03:10:57;5.47;;;1.48;;
40515;SDS011;26216;53.724;9.898;2024-03-23T03:13:23;7.15;;;1.98;;
40515;SDS011;26216;53.724;9.898;2024-03-23T03:15:49;7.07;;;1.80;;
40515;SDS011;26216;53.724;9.898;2024-03-23T03:18:15;6.45;;;1.40;;
40515;SDS011;26216;53.724;9.898;2024-03-23T03:20:41;5.25;;;1.50;;
40515;SDS011;26216;53.724;9.898;2024-03-23T03:23:07;5.82;;;1.90;;
40515;SDS011;26216;53.724;9.898;2024-03-23T03:25:33;4.70;;;1.50;;
40515;SDS011;26216;53.724;9.898;2024-03-23T03:27:59;6.57;;;1.65;;
40515;SDS011;26216;53.724;9.898;2024-03-23T03:30:25;4.93;;;1.80;;
40515;SDS011;26216;53.724;9.898;2024-03-23T03:32:53;4.15;;;1.60;;
40515;SDS011;26216;53.724;9.898;2024-03-23T03:35:19;7.38;;;2.00;;
40515;SDS011;26216;53.724;9.898;2024-03-23T03:37:45;6.82;;;1.70;;
40515;SDS011;26216;53.724;9.898;2024-03-23T03:40:11;6.55;;;1.80;;
40515;SDS011;26216;53.724;9.898;2024-03-23T03:42:37;6.47;;;1.77;;
40515;SDS011;26216;53.724;9.898;2024-03-23T03:45:03;7.22;;;1.63;;
40515;SDS011;26216;53.724;9.898;2024-03-23T03:47:30;7.50;;;1.70;;
40515;SDS011;26216;53.724;9.898;2024-03-23T03:49:55;5.68;;;1.67;;
40515;SDS011;26216;53.724;9.898;2024-03-23T03:52:21;6.82;;;1.75;;
40515;SDS011;26216;53.724;9.898;2024-03-23T03:54:47;4.78;;;1.50;;
40515;SDS011;26216;53.724;9.898;2024-03-23T03:57:13;3.88;;;1.38;;
40515;SDS011;26216;53.724;9.898;2024-03-23T03:59:38;5.53;;;1.75;;
40515;SDS011;26216;53.724;9.898;2024-03-23T04:02:04;5.35;;;1.50;;
40515;SDS011;26216;53.724;9.898;2024-03-23T04:04:30;5.15;;;1.42;;
40515;SDS011;26216;53.724;9.898;2024-03-23T04:06:59;8.00;;;1.58;;
40515;SDS011;26216;53.724;9.898;2024-03-23T04:09:26;7.35;;;1.48;;
40515;SDS011;26216;53.724;9.898;2024-03-23T04:11:52;5.97;;;2.08;;
40515;SDS011;26216;53.724;9.898;2024-03-23T04:14:17;7.47;;;2.00;;
40515;SDS011;26216;53.724;9.898;2024-03-23T04:16:43;6.22;;;1.90;;
40515;SDS011;26216;53.724;9.898;2024-03-23T04:19:09;5.50;;;1.60;;
40515;SDS011;26216;53.724;9.898;2024-03-23T04:21:35;7.93;;;2.10;;
40515;SDS011;26216;53.724;9.898;2024-03-23T04:24:02;4.38;;;1.50;;
40515;SDS011;26216;53.724;9.898;2024-03-23T04:26:29;5.70;;;1.67;;
40515;SDS011;26216;53.724;9.898;2024-03-23T04:28:54;5.57;;;1.75;;
40515;SDS011;26216;53.724;9.898;2024-03-23T04:31:20;4.70;;;1.80;;
40515;SDS011;26216;53.724;9.898;2024-03-23T04:33:47;5.20;;;2.10;;
40515;SDS011;26216;53.724;9.898;2024-03-23T04:36:12;5.22;;;1.73;;
40515;SDS011;26216;53.724;9.898;2024-03-23T04:38:38;4.93;;;1.70;;
40515;SDS011;26216;53.724;9.898;2024-03-23T04:41:04;6.18;;;1.63;;
40515;SDS011;26216;53.724;9.898;2024-03-23T04:43:30;4.40;;;1.40;;
40515;SDS011;26216;53.724;9.898;2024-03-23T04:45:56;7.55;;;2.13;;
40515;SDS011;26216;53.724;9.898;2024-03-23T04:48:22;6.32;;;1.65;;
40515;SDS011;26216;53.724;9.898;2024-03-23T04:50:49;6.50;;;1.58;;
40515;SDS011;26216;53.724;9.898;2024-03-23T04:53:15;6.18;;;1.70;;
40515;SDS011;26216;53.724;9.898;2024-03-23T04:55:41;9.02;;;2.40;;
40515;SDS011;26216;53.724;9.898;2024-03-23T04:58:08;6.47;;;2.17;;
40515;SDS011;26216;53.724;9.898;2024-03-23T05:00:34;6.82;;;1.70;;
40515;SDS011;26216;53.724;9.898;2024-03-23T05:03:00;6.25;;;1.45;;
40515;SDS011;26216;53.724;9.898;2024-03-23T05:05:26;7.82;;;1.73;;
40515;SDS011;26216;53.724;9.898;2024-03-23T05:07:51;7.60;;;1.75;;
40515;SDS011;26216;53.724;9.898;2024-03-23T05:10:17;4.78;;;1.65;;
40515;SDS011;26216;53.724;9.898;2024-03-23T05:12:43;5.88;;;2.10;;
40515;SDS011;26216;53.724;9.898;2024-03-23T05:15:10;6.13;;;1.75;;
40515;SDS011;26216;53.724;9.898;2024-03-23T05:17:36;8.00;;;2.33;;
40515;SDS011;26216;53.724;9.898;2024-03-23T05:20:03;8.02;;;1.83;;
40515;SDS011;26216;53.724;9.898;2024-03-23T05:22:34;4.25;;;1.60;;
40515;SDS011;26216;53.724;9.898;2024-03-23T05:25:01;6.72;;;1.63;;
40515;SDS011;26216;53.724;9.898;2024-03-23T05:27:31;6.63;;;2.08;;
40515;SDS011;26216;53.724;9.898;2024-03-23T05:29:58;7.28;;;2.30;;
40515;SDS011;26216;53.724;9.898;2024-03-23T05:32:24;5.05;;;1.85;;
40515;SDS011;26216;53.724;9.898;2024-03-23T05:34:50;5.03;;;1.45;;
40515;SDS011;26216;53.724;9.898;2024-03-23T05:37:21;8.13;;;1.80;;
40515;SDS011;26216;53.724;9.898;2024-03-23T05:39:47;6.75;;;1.48;;
40515;SDS011;26216;53.724;9.898;2024-03-23T05:42:15;5.20;;;1.83;;
40515;SDS011;26216;53.724;9.898;2024-03-23T05:44:45;8.43;;;1.65;;
40515;SDS011;26216;53.724;9.898;2024-03-23T05:47:12;8.38;;;1.60;;
40515;SDS011;26216;53.724;9.898;2024-03-23T05:49:41;8.38;;;2.13;;
40515;SDS011;26216;53.724;9.898;2024-03-23T05:52:08;6.40;;;1.40;;
40515;SDS011;26216;53.724;9.898;2024-03-23T05:54:34;8.13;;;1.88;;
40515;SDS011;26216;53.724;9.898;2024-03-23T05:57:01;6.68;;;1.77;;
40515;SDS011;26216;53.724;9.898;2024-03-23T05:59:27;8.95;;;2.20;;
40515;SDS011;26216;53.724;9.898;2024-03-23T06:01:53;7.00;;;1.77;;
40515;SDS011;26216;53.724;9.898;2024-03-23T06:04:19;6.40;;;1.60;;
40515;SDS011;26216;53.724;9.898;2024-03-23T06:06:45;6.05;;;1.77;;
40515;SDS011;26216;53.724;9.898;2024-03-23T06:09:11;6.03;;;1.75;;
40515;SDS011;26216;53.724;9.898;2024-03-23T06:11:37;5.50;;;1.58;;
40515;SDS011;26216;53.724;9.898;2024-03-23T06:14:03;5.50;;;1.48;;
40515;SDS011;26216;53.724;9.898;2024-03-23T06:16:29;8.10;;;2.05;;
40515;SDS011;26216;53.724;9.898;2024-03-23T06:18:56;5.75;;;1.48;;
40515;SDS011;26216;53.724;9.898;2024-03-23T06:21:29;5.68;;;1.60;;
40515;SDS011;26216;53.724;9.898;2024-03-23T06:23:55;6.88;;;1.73;;
40515;SDS011;26216;53.724;9.898;2024-03-23T06:26:21;5.75;;;1.40;;
40515;SDS011;26216;53.724;9.898;2024-03-23T06:28:47;5.57;;;1.55;;
40515;SDS011;26216;53.724;9.898;2024-03-23T06:31:13;6.20;;;1.52;;
40515;SDS011;26216;53.724;9.898;2024-03-23T06:33:39;6.55;;;1.77;;
40515;SDS011;26216;53.724;9.898;2024-03-23T06:36:09;9.73;;;1.73;;
40515;SDS011;26216;53.724;9.898;2024-03-23T06:38:35;6.18;;;1.60;;
40515;SDS011;26216;53.724;9.898;2024-03-23T06:41:03;6.20;;;1.50;;
40515;SDS011;26216;53.724;9.898;2024-03-23T06:43:29;9.55;;;1.90;;
40515;SDS011;26216;53.724;9.898;2024-03-23T06:45:55;7.85;;;2.08;;
40515;SDS011;26216;53.724;9.898;2024-03-23T06:48:21;6.97;;;1.83;;
40515;SDS011;26216;53.724;9.898;2024-03-23T06:50:47;8.35;;;2.25;;
40515;SDS011;26216;53.724;9.898;2024-03-23T06:53:14;5.95;;;1.85;;
40515;SDS011;26216;53.724;9.898;2024-03-23T06:55:40;6.07;;;1.95;;
40515;SDS011;26216;53.724;9.898;2024-03-23T06:58:06;4.57;;;1.38;;
40515;SDS011;26216;53.724;9.898;2024-03-23T07:00:33;6.28;;;1.50;;
40515;SDS011;26216;53.724;9.898;2024-03-23T07:02:59;9.52;;;1.95;;
40515;SDS011;26216;53.724;9.898;2024-03-23T07:05:25;6.25;;;2.13;;
40515;SDS011;26216;53.724;9.898;2024-03-23T07:07:51;7.90;;;2.03;;
40515;SDS011;26216;53.724;9.898;2024-03-23T07:10:17;9.75;;;2.25;;
40515;SDS011;26216;53.724;9.898;2024-03-23T07:12:43;7.57;;;1.70;;
40515;SDS011;26216;53.724;9.898;2024-03-23T07:15:09;9.98;;;2.55;;
40515;SDS011;26216;53.724;9.898;2024-03-23T07:17:35;6.47;;;1.95;;
40515;SDS011;26216;53.724;9.898;2024-03-23T07:20:01;8.32;;;2.03;;
40515;SDS011;26216;53.724;9.898;2024-03-23T07:22:32;6.18;;;2.30;;
40515;SDS011;26216;53.724;9.898;2024-03-23T07:25:01;8.68;;;2.17;;
40515;SDS011;26216;53.724;9.898;2024-03-23T07:27:28;12.77;;;2.00;;
40515;SDS011;26216;53.724;9.898;2024-03-23T07:29:54;9.38;;;2.30;;
40515;SDS011;26216;53.724;9.898;2024-03-23T07:32:20;13.02;;;2.28;;
40515;SDS011;26216;53.724;9.898;2024-03-23T07:34:46;10.02;;;2.97;;
40515;SDS011;26216;53.724;9.898;2024-03-23T07:37:12;8.23;;;2.17;;
40515;SDS011;26216;53.724;9.898;2024-03-23T07:39:39;10.48;;;2.35;;
40515;SDS011;26216;53.724;9.898;2024-03-23T07:42:05;7.60;;;2.28;;
40515;SDS011;26216;53.724;9.898;2024-03-23T07:44:31;6.78;;;2.30;;
40515;SDS011;26216;53.724;9.898;2024-03-23T07:46:58;10.25;;;3.15;;
40515;SDS011;26216;53.724;9.898;2024-03-23T07:49:26;9.15;;;2.67;;
40515;SDS011;26216;53.724;9.898;2024-03-23T07:51:52;9.57;;;2.55;;
40515;SDS011;26216;53.724;9.898;2024-03-23T07:54:18;11.40;;;2.80;;
40515;SDS011;26216;53.724;9.898;2024-03-23T07:56:44;7.70;;;2.45;;
40515;SDS011;26216;53.724;9.898;2024-03-23T07:59:09;8.57;;;2.80;;
40515;SDS011;26216;53.724;9.898;2024-03-23T08:01:36;9.57;;;2.47;;
40515;SDS011;26216;53.724;9.898;2024-03-23T08:04:02;10.68;;;2.53;;
40515;SDS011;26216;53.724;9.898;2024-03-23T08:06:27;16.60;;;3.35;;
40515;SDS011;26216;53.724;9.898;2024-03-23T08:08:56;15.95;;;3.35;;
40515;SDS011;26216;53.724;9.898;2024-03-23T08:11:27;12.10;;;3.47;;
40515;SDS011;26216;53.724;9.898;2024-03-23T08:13:57;8.98;;;2.60;;
40515;SDS011;26216;53.724;9.898;2024-03-23T08:16:23;14.40;;;3.13;;
40515;SDS011;26216;53.724;9.898;2024-03-23T08:18:52;13.82;;;3.50;;
40515;SDS011;26216;53.724;9.898;2024-03-23T08:21:19;17.27;;;3.72;;
40515;SDS011;26216;53.724;9.898;2024-03-23T08:23:44;13.30;;;3.45;;
40515;SDS011;26216;53.724;9.898;2024-03-23T08:26:11;10.73;;;3.25;;
40515;SDS011;26216;53.724;9.898;2024-03-23T08:28:38;9.57;;;2.85;;
40515;SDS011;26216;53.724;9.898;2024-03-23T08:31:08;9.77;;;2.97;;
40515;SDS011;26216;53.724;9.898;2024-03-23T08:33:34;14.68;;;3.40;;
40515;SDS011;26216;53.724;9.898;2024-03-23T08:36:05;15.00;;;3.75;;
40515;SDS011;26216;53.724;9.898;2024-03-23T08:38:31;12.32;;;3.38;;
40515;SDS011;26216;53.724;9.898;2024-03-23T08:41:05;9.73;;;2.53;;
40515;SDS011;26216;53.724;9.898;2024-03-23T08:43:32;8.13;;;2.33;;
40515;SDS011;26216;53.724;9.898;2024-03-23T08:46:07;7.20;;;2.10;;
40515;SDS011;26216;53.724;9.898;2024-03-23T08:48:41;9.73;;;2.40;;
40515;SDS011;26216;53.724;9.898;2024-03-23T08:51:12;9.00;;;2.45;;
40515;SDS011;26216;53.724;9.898;2024-03-23T08:53:39;7.75;;;2.38;;
40515;SDS011;26216;53.724;9.898;2024-03-23T08:56:05;10.70;;;2.58;;
40515;SDS011;26216;53.724;9.898;2024-03-23T08:58:33;9.98;;;2.95;;
40515;SDS011;26216;53.724;9.898;2024-03-23T09:01:17;10.43;;;2.55;;
40515;SDS011;26216;53.724;9.898;2024-03-23T09:03:43;12.77;;;3.15;;
40515;SDS011;26216;53.724;9.898;2024-03-23T09:06:11;12.30;;;3.67;;
40515;SDS011;26216;53.724;9.898;2024-03-23T09:08:39;9.95;;;3.03;;
40515;SDS011;26216;53.724;9.898;2024-03-23T09:11:09;8.68;;;2.15;;
40515;SDS011;26216;53.724;9.898;2024-03-23T09:13:37;9.45;;;2.72;;
40515;SDS011;26216;53.724;9.898;2024-03-23T09:16:04;8.20;;;2.60;;
40515;SDS011;26216;53.724;9.898;2024-03-23T09:18:36;8.60;;;2.92;;
40515;SDS011;26216;53.724;9.898;2024-03-23T09:21:04;9.38;;;3.08;;
40515;SDS011;26216;53.724;9.898;2024-03-23T09:23:37;8.77;;;2.53;;
40515;SDS011;26216;53.724;9.898;2024-03-23T09:26:03;10.98;;;3.03;;
40515;SDS011;26216;53.724;9.898;2024-03-23T09:28:29;8.70;;;2.50;;
40515;SDS011;26216;53.724;9.898;2024-03-23T09:31:01;9.55;;;2.75;;
40515;SDS011;26216;53.724;9.898;2024-03-23T09:33:31;12.52;;;2.88;;
40515;SDS011;26216;53.724;9.898;2024-03-23T09:35:57;10.05;;;2.47;;
40515;SDS011;26216;53.724;9.898;2024-03-23T09:38:23;7.75;;;1.83;;
40515;SDS011;26216;53.724;9.898;2024-03-23T09:40:49;8.45;;;2.20;;
40515;SDS011;26216;53.724;9.898;2024-03-23T09:43:18;8.07;;;2.00;;
40515;SDS011;26216;53.724;9.898;2024-03-23T09:45:45;10.90;;;1.95;;
40515;SDS011;26216;53.724;9.898;2024-03-23T09:48:11;8.23;;;2.13;;
40515;SDS011;26216;53.724;9.898;2024-03-23T09:50:40;8.43;;;2.47;;
40515;SDS011;26216;53.724;9.898;2024-03-23T09:53:06;10.30;;;2.70;;
40515;SDS011;26216;53.724;9.898;2024-03-23T09:55:34;7.82;;;1.90;;
40515;SDS011;26216;53.724;9.898;2024-03-23T09:58:03;7.95;;;2.47;;
40515;SDS011;26216;53.724;9.898;2024-03-23T10:00:33;8.23;;;2.35;;
40515;SDS011;26216;53.724;9.898;2024-03-23T10:03:01;6.05;;;2.50;;
40515;SDS011;26216;53.724;9.898;2024-03-23T10:05:27;6.18;;;1.90;;
40515;SDS011;26216;53.724;9.898;2024-03-23T10:07:56;6.93;;;2.08;;
40515;SDS011;26216;53.724;9.898;2024-03-23T10:10:22;5.22;;;1.58;;
40515;SDS011;26216;53.724;9.898;2024-03-23T10:12:51;6.53;;;1.55;;
40515;SDS011;26216;53.724;9.898;2024-03-23T10:15:18;7.65;;;1.95;;
40515;SDS011;26216;53.724;9.898;2024-03-23T10:17:45;4.05;;;1.35;;
40515;SDS011;26216;53.724;9.898;2024-03-23T10:20:11;4.53;;;1.10;;
40515;SDS011;26216;53.724;9.898;2024-03-23T10:22:38;4.85;;;1.40;;
40515;SDS011;26216;53.724;9.898;2024-03-23T10:25:09;6.60;;;1.52;;
40515;SDS011;26216;53.724;9.898;2024-03-23T10:27:36;3.58;;;1.20;;
40515;SDS011;26216;53.724;9.898;2024-03-23T10:32:35;6.15;;;1.38;;
40515;SDS011;26216;53.724;9.898;2024-03-23T10:35:15;7.53;;;1.58;;
40515;SDS011;26216;53.724;9.898;2024-03-23T10:37:48;5.35;;;1.13;;
40515;SDS011;26216;53.724;9.898;2024-03-23T10:40:15;4.13;;;1.17;;
40515;SDS011;26216;53.724;9.898;2024-03-23T10:42:43;5.22;;;1.45;;
40515;SDS011;26216;53.724;9.898;2024-03-23T10:45:10;6.25;;;1.48;;
40515;SDS011;26216;53.724;9.898;2024-03-23T10:47:36;7.05;;;1.75;;
40515;SDS011;26216;53.724;9.898;2024-03-23T10:50:03;4.43;;;1.02;;
40515;SDS011;26216;53.724;9.898;2024-03-23T10:52:33;4.82;;;1.17;;
40515;SDS011;26216;53.724;9.898;2024-03-23T10:55:00;5.07;;;1.42;;
40515;SDS011;26216;53.724;9.898;2024-03-23T10:57:31;5.80;;;2.17;;
40515;SDS011;26216;53.724;9.898;2024-03-23T11:00:04;4.97;;;1.75;;
40515;SDS011;26216;53.724;9.898;2024-03-23T11:02:31;5.18;;;1.50;;
40515;SDS011;26216;53.724;9.898;2024-03-23T11:04:57;3.00;;;1.00;;
40515;SDS011;26216;53.724;9.898;2024-03-23T11:12:30;5.07;;;1.35;;
40515;SDS011;26216;53.724;9.898;2024-03-23T11:17:39;7.10;;;1.92;;
40515;SDS011;26216;53.724;9.898;2024-03-23T11:20:06;4.22;;;0.77;;
40515;SDS011;26216;53.724;9.898;2024-03-23T11:25:12;1.95;;;0.50;;
40515;SDS011;26216;53.724;9.898;2024-03-23T11:27:42;3.10;;;0.73;;
40515;SDS011;26216;53.724;9.898;2024-03-23T11:30:23;1.77;;;0.60;;
40515;SDS011;26216;53.724;9.898;2024-03-23T11:32:50;3.80;;;1.05;;
40515;SDS011;26216;53.724;9.898;2024-03-23T11:40:29;4.82;;;1.23;;
40515;SDS011;26216;53.724;9.898;2024-03-23T11:42:58;5.35;;;1.35;;
40515;SDS011;26216;53.724;9.898;2024-03-23T11:45:25;4.82;;;1.20;;
40515;SDS011;26216;53.724;9.898;2024-03-23T11:50:30;4.45;;;1.30;;
40515;SDS011;26216;53.724;9.898;2024-03-23T11:53:12;8.10;;;1.27;;
40515;SDS011;26216;53.724;9.898;2024-03-23T11:58:14;2.05;;;0.43;;
40515;SDS011;26216;53.724;9.898;2024-03-23T12:00:41;0.98;;;0.40;;
40515;SDS011;26216;53.724;9.898;2024-03-23T12:03:07;0.63;;;0.30;;
40515;SDS011;26216;53.724;9.898;2024-03-23T12:05:35;1.30;;;0.30;;
40515;SDS011;26216;53.724;9.898;2024-03-23T12:08:18;0.47;;;0.40;;
40515;SDS011;26216;53.724;9.898;2024-03-23T12:10:53;1.33;;;0.32;;
40515;SDS011;26216;53.724;9.898;2024-03-23T12:13:34;1.15;;;0.40;;
40515;SDS011;26216;53.724;9.898;2024-03-23T12:16:19;1.42;;;0.40;;
40515;SDS011;26216;53.724;9.898;2024-03-23T12:18:47;1.10;;;0.40;;
40515;SDS011;26216;53.724;9.898;2024-03-23T12:21:14;2.88;;;0.70;;
40515;SDS011;26216;53.724;9.898;2024-03-23T12:23:42;3.95;;;0.73;;
40515;SDS011;26216;53.724;9.898;2024-03-23T12:28:39;2.35;;;0.70;;
40515;SDS011;26216;53.724;9.898;2024-03-23T12:31:05;4.78;;;0.80;;
40515;SDS011;26216;53.724;9.898;2024-03-23T12:33:31;4.00;;;0.98;;
40515;SDS011;26216;53.724;9.898;2024-03-23T12:35:57;2.40;;;0.70;;
40515;SDS011;26216;53.724;9.898;2024-03-23T12:38:30;2.80;;;0.70;;
40515;SDS011;26216;53.724;9.898;2024-03-23T12:40:56;1.08;;;0.50;;
40515;SDS011;26216;53.724;9.898;2024-03-23T12:43:22;2.20;;;0.50;;
40515;SDS011;26216;53.724;9.898;2024-03-23T12:45:48;0.70;;;0.30;;
40515;SDS011;26216;53.724;9.898;2024-03-23T12:48:15;1.15;;;0.30;;
40515;SDS011;26216;53.724;9.898;2024-03-23T12:50:41;2.15;;;0.40;;
40515;SDS011;26216;53.724;9.898;2024-03-23T12:53:11;1.02;;;0.40;;
40515;SDS011;26216;53.724;9.898;2024-03-23T12:55:37;0.75;;;0.30;;
40515;SDS011;26216;53.724;9.898;2024-03-23T12:58:03;0.88;;;0.28;;
40515;SDS011;26216;53.724;9.898;2024-03-23T13:00:30;1.05;;;0.28;;
40515;SDS011;26216;53.724;9.898;2024-03-23T13:02:56;0.88;;;0.30;;
40515;SDS011;26216;53.724;9.898;2024-03-23T13:05:22;2.28;;;0.60;;
40515;SDS011;26216;53.724;9.898;2024-03-23T13:07:48;4.75;;;0.90;;
40515;SDS011;26216;53.724;9.898;2024-03-23T13:10:15;2.33;;;0.90;;
40515;SDS011;26216;53.724;9.898;2024-03-23T13:12:42;3.47;;;0.80;;
40515;SDS011;26216;53.724;9.898;2024-03-23T13:15:08;3.85;;;0.98;;
40515;SDS011;26216;53.724;9.898;2024-03-23T13:17:34;3.10;;;1.02;;
40515;SDS011;26216;53.724;9.898;2024-03-23T13:20:01;3.85;;;1.25;;
40515;SDS011;26216;53.724;9.898;2024-03-23T13:22:28;2.40;;;0.75;;
40515;SDS011;26216;53.724;9.898;2024-03-23T13:24:55;4.00;;;1.10;;
40515;SDS011;26216;53.724;9.898;2024-03-23T13:27:21;7.57;;;1.05;;
40515;SDS011;26216;53.724;9.898;2024-03-23T13:29:49;7.20;;;1.45;;
40515;SDS011;26216;53.724;9.898;2024-03-23T13:32:16;3.20;;;1.00;;
40515;SDS011;26216;53.724;9.898;2024-03-23T13:34:42;2.03;;;0.50;;
40515;SDS011;26216;53.724;9.898;2024-03-23T13:37:08;3.42;;;0.50;;
40515;SDS011;26216;53.724;9.898;2024-03-23T13:39:35;1.85;;;0.40;;
40515;SDS011;26216;53.724;9.898;2024-03-23T13:42:01;0.88;;;0.38;;
40515;SDS011;26216;53.724;9.898;2024-03-23T13:44:29;3.20;;;0.40;;
40515;SDS011;26216;53.724;9.898;2024-03-23T13:46:55;2.38;;;1.00;;
40515;SDS011;26216;53.724;9.898;2024-03-23T13:49:28;3.45;;;0.65;;
40515;SDS011;26216;53.724;9.898;2024-03-23T13:51:56;2.20;;;0.80;;
40515;SDS011;26216;53.724;9.898;2024-03-23T13:54:23;1.00;;;0.40;;
40515;SDS011;26216;53.724;9.898;2024-03-23T13:56:50;2.03;;;0.50;;
40515;SDS011;26216;53.724;9.898;2024-03-23T13:59:17;1.75;;;0.60;;
40515;SDS011;26216;53.724;9.898;2024-03-23T14:01:44;1.52;;;0.50;;
40515;SDS011;26216;53.724;9.898;2024-03-23T14:04:13;0.82;;;0.55;;
40515;SDS011;26216;53.724;9.898;2024-03-23T14:06:42;2.83;;;0.60;;
40515;SDS011;26216;53.724;9.898;2024-03-23T14:09:10;1.20;;;0.50;;
40515;SDS011;26216;53.724;9.898;2024-03-23T14:11:40;2.13;;;0.73;;
40515;SDS011;26216;53.724;9.898;2024-03-23T14:14:08;5.40;;;1.10;;
40515;SDS011;26216;53.724;9.898;2024-03-23T14:16:34;3.55;;;1.05;;
40515;SDS011;26216;53.724;9.898;2024-03-23T14:19:02;5.72;;;1.38;;
40515;SDS011;26216;53.724;9.898;2024-03-23T14:21:31;3.40;;;0.77;;
40515;SDS011;26216;53.724;9.898;2024-03-23T14:23:57;5.10;;;1.15;;
40515;SDS011;26216;53.724;9.898;2024-03-23T14:26:23;5.55;;;1.00;;
40515;SDS011;26216;53.724;9.898;2024-03-23T14:28:49;3.25;;;1.27;;
40515;SDS011;26216;53.724;9.898;2024-03-23T14:31:15;4.47;;;1.20;;
40515;SDS011;26216;53.724;9.898;2024-03-23T14:33:42;5.95;;;1.00;;
40515;SDS011;26216;53.724;9.898;2024-03-23T14:36:15;5.75;;;1.20;;
40515;SDS011;26216;53.724;9.898;2024-03-23T14:38:42;8.90;;;2.00;;
40515;SDS011;26216;53.724;9.898;2024-03-23T14:41:12;9.70;;;2.35;;
40515;SDS011;26216;53.724;9.898;2024-03-23T14:43:38;5.72;;;1.48;;
40515;SDS011;26216;53.724;9.898;2024-03-23T14:48:41;5.22;;;1.20;;
40515;SDS011;26216;53.724;9.898;2024-03-23T14:51:09;4.40;;;1.60;;
40515;SDS011;26216;53.724;9.898;2024-03-23T14:53:38;4.72;;;1.40;;
40515;SDS011;26216;53.724;9.898;2024-03-23T14:56:06;4.35;;;1.30;;
40515;SDS011;26216;53.724;9.898;2024-03-23T14:58:33;3.67;;;1.17;;
40515;SDS011;26216;53.724;9.898;2024-03-23T15:01:05;3.97;;;1.20;;
40515;SDS011;26216;53.724;9.898;2024-03-23T15:03:36;2.85;;;1.00;;
40515;SDS011;26216;53.724;9.898;2024-03-23T15:06:04;3.58;;;1.05;;
40515;SDS011;26216;53.724;9.898;2024-03-23T15:08:30;4.47;;;1.27;;
40515;SDS011;26216;53.724;9.898;2024-03-23T15:11:00;5.82;;;1.15;;
40515;SDS011;26216;53.724;9.898;2024-03-23T15:13:31;3.88;;;1.33;;
40515;SDS011;26216;53.724;9.898;2024-03-23T15:15:58;4.25;;;1.35;;
40515;SDS011;26216;53.724;9.898;2024-03-23T15:18:25;3.30;;;0.65;;
40515;SDS011;26216;53.724;9.898;2024-03-23T15:20:55;2.60;;;0.90;;
40515;SDS011;26216;53.724;9.898;2024-03-23T15:23:22;1.17;;;0.40;;
40515;SDS011;26216;53.724;9.898;2024-03-23T15:25:58;1.92;;;0.57;;
40515;SDS011;26216;53.724;9.898;2024-03-23T15:28:26;1.70;;;0.60;;
40515;SDS011;26216;53.724;9.898;2024-03-23T15:31:06;2.03;;;0.73;;
40515;SDS011;26216;53.724;9.898;2024-03-23T15:33:35;1.50;;;0.50;;
40515;SDS011;26216;53.724;9.898;2024-03-23T15:36:02;1.80;;;0.55;;
40515;SDS011;26216;53.724;9.898;2024-03-23T15:38:28;1.75;;;0.63;;
40515;SDS011;26216;53.724;9.898;2024-03-23T15:40:54;2.17;;;0.95;;
40515;SDS011;26216;53.724;9.898;2024-03-23T15:43:20;1.52;;;0.60;;
40515;SDS011;26216;53.724;9.898;2024-03-23T15:46:02;2.03;;;0.57;;
40515;SDS011;26216;53.724;9.898;2024-03-23T15:48:30;1.42;;;0.68;;
40515;SDS011;26216;53.724;9.898;2024-03-23T15:50:58;3.38;;;0.95;;
40515;SDS011;26216;53.724;9.898;2024-03-23T15:53:25;3.15;;;1.00;;
40515;SDS011;26216;53.724;9.898;2024-03-23T15:56:00;3.42;;;1.00;;
40515;SDS011;26216;53.724;9.898;2024-03-23T15:58:29;6.45;;;1.10;;
40515;SDS011;26216;53.724;9.898;2024-03-23T16:01:00;2.90;;;0.40;;
40515;SDS011;26216;53.724;9.898;2024-03-23T16:03:31;2.63;;;0.60;;
40515;SDS011;26216;53.724;9.898;2024-03-23T16:05:59;2.65;;;0.80;;
40515;SDS011;26216;53.724;9.898;2024-03-23T16:08:27;2.38;;;1.08;;